createdAt,value
2019-02-17T00:00:10.109Z,70.40
2019-02-17T00:02:44.927Z,69.42
2019-02-17T00:05:13.958Z,69.93
2019-02-17T00:07:43.041Z,68.17
2019-02-17T00:10:12.113Z,70.91
2019-02-17T00:12:41.154Z,70.60
2019-02-17T00:15:11.403Z,71.72
2019-02-17T00:17:40.486Z,71.98
2019-02-17T00:20:09.531Z,73.05
2019-02-17T00:22:38.600Z,72.12
2019-02-17T00:25:07.729Z,73.77
2019-02-17T00:27:37.223Z,73.98
2019-02-17T00:30:08.928Z,73.26
2019-02-17T00:32:38.015Z,73.86
2019-02-17T00:35:09.684Z,71.54
2019-02-17T00:37:38.776Z,73.87
2019-02-17T00:40:07.829Z,73.94
2019-02-17T00:42:36.939Z,75.58
2019-02-17T00:45:06.986Z,75.41
2019-02-17T00:47:36.783Z,75.16
2019-02-17T00:50:06.827Z,75.84
2019-02-17T00:52:35.869Z,77.43
2019-02-17T00:55:05.816Z,80.33
2019-02-17T00:57:34.882Z,78.91
2019-02-17T01:02:40.216Z,77.13
2019-02-17T01:05:10.227Z,73.59
2019-02-17T01:10:21.119Z,80.02
2019-02-17T01:12:50.304Z,81.08
2019-02-17T01:15:19.333Z,79.15
2019-02-17T01:17:48.415Z,78.49
2019-02-17T01:20:18.233Z,79.64
2019-02-17T01:22:49.304Z,77.27
2019-02-17T01:25:19.271Z,81.01
2019-02-17T01:27:48.348Z,83.03
2019-02-17T01:30:17.385Z,81.56
2019-02-17T01:32:47.387Z,81.17
2019-02-17T01:35:17.412Z,82.80
2019-02-17T01:40:32.769Z,77.90
2019-02-17T01:43:02.741Z,78.22
2019-02-17T01:45:31.791Z,80.74
2019-02-17T01:50:41.686Z,82.48
2019-02-17T01:53:11.727Z,77.93
2019-02-17T01:55:40.795Z,82.67
2019-02-17T02:00:48.138Z,83.11
2019-02-17T02:03:18.151Z,81.20
2019-02-17T02:05:47.743Z,78.12
2019-02-17T02:08:17.828Z,78.15
2019-02-17T02:10:46.883Z,82.72
2019-02-17T02:16:01.560Z,81.81
2019-02-17T02:18:32.256Z,82.95
2019-02-17T02:21:01.343Z,81.05
2019-02-17T02:23:30.399Z,79.18
2019-02-17T02:25:59.825Z,77.71
2019-02-17T02:28:28.893Z,76.52
2019-02-17T02:30:57.962Z,75.84
2019-02-17T02:33:27.001Z,74.99
2019-02-17T02:35:56.052Z,74.31
2019-02-17T02:38:27.376Z,74.64
2019-02-17T02:40:56.447Z,75.73
2019-02-17T02:43:25.517Z,76.41
2019-02-17T02:45:54.576Z,75.52
2019-02-17T02:48:23.643Z,73.58
2019-02-17T02:50:57.253Z,72.43
2019-02-17T02:53:26.325Z,71.95
2019-02-17T02:55:55.389Z,71.80
2019-02-17T02:58:38.183Z,71.39
2019-02-17T03:01:10.458Z,71.81
2019-02-17T03:03:40.358Z,72.18
2019-02-17T03:06:10.351Z,72.45
2019-02-17T03:08:39.403Z,72.77
2019-02-17T03:14:09.075Z,76.37
2019-02-17T03:16:38.130Z,76.84
2019-02-17T03:19:07.180Z,74.41
2019-02-17T03:21:38.230Z,73.96
2019-02-17T03:24:07.867Z,73.33
2019-02-17T03:26:36.958Z,73.74
2019-02-17T03:31:41.192Z,72.35
2019-02-17T03:34:10.290Z,72.08
2019-02-17T03:36:40.205Z,72.44
2019-02-17T03:39:09.304Z,73.96
2019-02-17T03:41:52.329Z,72.37
2019-02-17T03:44:25.903Z,73.06
2019-02-17T03:46:54.984Z,75.08
2019-02-17T03:57:12.299Z,76.96
2019-02-17T03:59:41.469Z,76.31
2019-02-17T04:02:10.538Z,74.49
2019-02-17T04:07:18.373Z,74.73
2019-02-17T04:09:48.991Z,75.18
2019-02-17T04:12:19.077Z,74.70
2019-02-17T04:14:48.142Z,74.17
2019-02-17T04:17:17.196Z,75.17
2019-02-17T04:19:46.283Z,75.60
2019-02-17T04:22:15.800Z,76.79
2019-02-17T04:24:44.912Z,76.56
2019-02-17T04:27:13.977Z,76.95
2019-02-17T04:29:43.373Z,75.60
2019-02-17T04:32:12.561Z,76.11
2019-02-17T04:34:41.602Z,75.39
2019-02-17T04:37:11.588Z,75.95
2019-02-17T04:42:17.043Z,78.30
2019-02-17T04:46:27.585Z,78.27
2019-02-17T04:48:57.269Z,78.07
2019-02-17T04:51:26.347Z,76.49
2019-02-17T04:53:55.398Z,76.81
2019-02-17T04:56:24.439Z,75.86
2019-02-17T04:58:53.520Z,78.11
2019-02-17T05:01:24.117Z,79.58
2019-02-17T05:03:53.208Z,79.68
2019-02-17T05:06:22.280Z,80.86
2019-02-17T05:08:51.354Z,81.74
2019-02-17T05:11:21.352Z,81.23
2019-02-17T05:13:50.947Z,79.86
2019-02-17T05:16:20.951Z,79.68
2019-02-17T05:18:50.036Z,80.03
2019-02-17T05:21:22.262Z,79.46
2019-02-17T05:23:52.242Z,78.06
2019-02-17T05:26:21.306Z,77.45
2019-02-17T05:28:51.292Z,77.29
2019-02-17T05:31:21.947Z,76.91
2019-02-17T05:33:51.927Z,76.00
2019-02-17T05:38:57.666Z,72.13
2019-02-17T05:41:29.873Z,71.66
2019-02-17T05:49:13.286Z,74.74
2019-02-17T05:51:42.337Z,75.63
2019-02-17T05:54:17.731Z,75.09
2019-02-17T05:56:46.879Z,74.80
2019-02-17T05:59:16.934Z,74.33
2019-02-17T06:01:45.999Z,73.89
2019-02-17T06:04:18.903Z,73.18
2019-02-17T06:06:48.460Z,73.55
2019-02-17T06:09:18.526Z,73.89
2019-02-17T06:11:48.980Z,74.60
2019-02-17T06:17:09.928Z,75.46
2019-02-17T06:19:39.898Z,75.83
2019-02-17T06:22:09.496Z,75.05
2019-02-17T06:24:39.001Z,75.75
2019-02-17T06:27:08.592Z,75.66
2019-02-17T06:29:37.696Z,76.96
2019-02-17T06:32:07.172Z,77.91
2019-02-17T06:34:36.268Z,77.65
2019-02-17T06:37:05.343Z,76.55
2019-02-17T06:39:36.362Z,75.88
2019-02-17T06:42:05.443Z,75.37
2019-02-17T06:44:34.508Z,75.13
2019-02-17T06:47:03.563Z,74.77
2019-02-17T06:49:33.611Z,73.68
2019-02-17T06:52:03.221Z,71.78
2019-02-17T06:54:40.089Z,70.35
2019-02-17T06:57:09.131Z,68.44
2019-02-17T06:59:41.861Z,68.05
2019-02-17T07:02:11.501Z,67.32
2019-02-17T07:10:01.475Z,67.12
2019-02-17T07:12:31.510Z,66.71
2019-02-17T07:15:00.553Z,66.09
2019-02-17T07:17:37.577Z,66.02
2019-02-17T07:20:06.639Z,66.04
2019-02-17T07:22:36.595Z,65.61
2019-02-17T07:25:06.045Z,65.89
2019-02-17T07:30:12.129Z,63.75
2019-02-17T07:32:41.193Z,62.63
2019-02-17T07:35:10.304Z,62.26
2019-02-17T07:37:40.782Z,61.36
2019-02-17T07:40:09.863Z,61.06
2019-02-17T07:42:46.303Z,59.66
2019-02-17T07:45:15.347Z,60.18
2019-02-17T07:47:44.423Z,59.84
2019-02-17T07:50:13.853Z,61.02
2019-02-17T07:52:42.970Z,61.34
2019-02-17T07:55:11.987Z,60.68
2019-02-17T07:57:42.586Z,60.87
2019-02-17T08:00:11.702Z,64.70
2019-02-17T08:02:58.646Z,61.95
2019-02-17T08:05:39.539Z,61.21
2019-02-17T08:08:08.595Z,59.91
2019-02-17T08:10:38.264Z,58.30
2019-02-17T08:13:07.330Z,54.86
2019-02-17T08:15:36.424Z,55.22
2019-02-17T08:18:06.456Z,55.62
2019-02-17T08:20:36.751Z,55.37
2019-02-17T08:23:07.075Z,55.60
2019-02-17T08:25:36.140Z,55.71
2019-02-17T08:28:05.283Z,54.53
2019-02-17T08:30:35.490Z,54.81
2019-02-17T08:35:41.811Z,58.48
2019-02-17T08:38:10.869Z,59.88
2019-02-17T08:40:39.910Z,61.09
2019-02-17T08:43:10.287Z,60.40
2019-02-17T08:45:41.342Z,60.89
2019-02-17T08:48:10.382Z,58.56
2019-02-17T08:50:41.365Z,53.27
2019-02-17T08:53:10.551Z,51.91
2019-02-17T08:58:15.615Z,48.57
2019-02-17T09:00:45.588Z,46.95
2019-02-17T09:03:14.634Z,46.43
2019-02-17T09:05:44.522Z,46.27
2019-02-17T09:10:50.003Z,44.89
2019-02-17T09:15:56.309Z,35.29
2019-02-17T09:18:26.411Z,33.22
2019-02-17T09:20:55.467Z,32.48
2019-02-17T09:23:24.524Z,29.92
2019-02-17T09:25:53.609Z,28.51
2019-02-17T09:30:58.461Z,28.28
2019-02-17T09:33:27.526Z,31.33
2019-02-17T09:35:56.588Z,26.87
2019-02-17T09:38:25.668Z,33.04
2019-02-17T09:40:55.455Z,28.47
2019-02-17T09:43:24.548Z,20.28
2019-02-17T09:45:53.594Z,27.03
2019-02-17T09:48:27.607Z,21.18
2019-02-17T09:50:58.055Z,24.68
2019-02-17T09:53:27.116Z,21.14
2019-02-17T09:55:56.202Z,25.02
2019-02-17T09:58:25.251Z,19.62
2019-02-17T10:00:54.615Z,18.07
2019-02-17T10:03:23.686Z,22.85
2019-02-17T10:05:52.759Z,23.23
2019-02-17T10:08:21.884Z,21.18
2019-02-17T10:10:50.936Z,21.69
2019-02-17T10:15:56.290Z,18.94
2019-02-17T10:21:05.123Z,20.03
2019-02-17T10:23:34.214Z,15.19
2019-02-17T10:26:05.252Z,17.13
2019-02-17T10:28:42.094Z,18.60
2019-02-17T10:31:04.999Z,16.21
2019-02-17T10:33:43.995Z,19.02
2019-02-17T10:36:17.435Z,15.31
2019-02-17T10:38:46.744Z,16.86
2019-02-17T10:41:19.499Z,18.75
2019-02-17T10:43:48.534Z,13.74
2019-02-17T10:48:53.489Z,17.86
2019-02-17T10:51:22.527Z,17.39
2019-02-17T10:53:51.573Z,16.63
2019-02-17T10:56:21.553Z,13.12
2019-02-17T10:58:51.306Z,13.45
2019-02-17T11:01:20.359Z,15.70
2019-02-17T11:04:05.284Z,13.85
2019-02-17T11:06:34.792Z,15.00
2019-02-17T11:09:05.882Z,15.46
2019-02-17T11:11:34.931Z,14.61
2019-02-17T11:14:05.984Z,14.62
2019-02-17T11:16:40.037Z,14.03
2019-02-17T11:19:11.604Z,14.77
2019-02-17T11:21:40.678Z,14.61
2019-02-17T11:24:09.762Z,13.96
2019-02-17T11:26:38.824Z,13.07
2019-02-17T11:31:44.076Z,12.81
2019-02-17T11:34:13.231Z,12.59
2019-02-17T11:36:42.283Z,13.78
2019-02-17T11:39:18.559Z,12.60
2019-02-17T11:41:48.551Z,12.79
2019-02-17T11:44:17.659Z,14.31
2019-02-17T11:46:46.687Z,13.59
2019-02-17T11:49:15.727Z,14.19
2019-02-17T11:51:46.436Z,14.26
2019-02-17T11:56:50.840Z,10.97
2019-02-17T11:59:20.852Z,12.29
2019-02-17T12:01:50.850Z,13.07
2019-02-17T12:04:20.493Z,12.49
2019-02-17T12:06:49.577Z,10.79
2019-02-17T12:09:18.638Z,12.51
2019-02-17T12:11:50.002Z,13.33
2019-02-17T12:14:19.119Z,14.08
2019-02-17T12:16:49.134Z,13.51
2019-02-17T12:19:18.179Z,13.98
2019-02-17T12:21:54.453Z,12.75
2019-02-17T12:24:24.273Z,13.74
2019-02-17T12:26:58.956Z,13.06
2019-02-17T12:29:43.640Z,13.57
2019-02-17T12:32:12.839Z,14.11
2019-02-17T12:34:41.910Z,13.08
2019-02-17T12:37:11.450Z,12.34
2019-02-17T12:39:41.562Z,13.35
2019-02-17T12:47:27.851Z,14.29
2019-02-17T12:49:57.663Z,14.39
2019-02-17T12:52:27.703Z,13.48
2019-02-17T12:54:56.797Z,13.88
2019-02-17T12:57:26.368Z,13.55
2019-02-17T12:59:55.408Z,13.54
2019-02-17T13:02:24.456Z,12.88
2019-02-17T13:05:02.367Z,13.70
2019-02-17T13:07:32.737Z,13.12
2019-02-17T13:10:02.237Z,12.93
2019-02-17T13:12:31.335Z,12.36
2019-02-17T13:15:00.408Z,13.09
2019-02-17T13:17:29.513Z,11.99
2019-02-17T13:19:58.592Z,11.64
2019-02-17T13:22:28.410Z,12.00
2019-02-17T13:24:57.502Z,11.93
2019-02-17T13:30:03.343Z,12.38
2019-02-17T13:32:33.371Z,13.23
2019-02-17T13:35:04.157Z,12.06
2019-02-17T13:37:33.267Z,11.34
2019-02-17T13:40:02.324Z,12.13
2019-02-17T13:42:32.624Z,10.85
2019-02-17T13:45:01.949Z,10.08
2019-02-17T13:47:31.012Z,10.95
2019-02-17T13:50:01.036Z,11.37
2019-02-17T13:52:32.014Z,9.62
2019-02-17T13:54:59.631Z,9.26
2019-02-17T13:57:30.597Z,9.28
2019-02-17T14:02:39.581Z,9.19
2019-02-17T14:05:08.647Z,9.04
2019-02-17T14:07:38.580Z,9.10
2019-02-17T14:10:10.642Z,9.41
2019-02-17T14:12:39.726Z,9.30
2019-02-17T14:15:13.899Z,9.82
2019-02-17T14:17:42.955Z,9.74
2019-02-17T14:22:47.824Z,8.91
2019-02-17T14:25:16.900Z,8.83
2019-02-17T14:27:46.656Z,8.82
2019-02-17T14:30:17.452Z,9.39
2019-02-17T14:32:46.567Z,9.23
2019-02-17T14:35:15.598Z,9.59
2019-02-17T14:37:44.647Z,9.80
2019-02-17T14:40:14.101Z,9.47
2019-02-17T14:42:43.187Z,9.23
2019-02-17T14:45:13.731Z,9.37
2019-02-17T14:47:45.218Z,9.57
2019-02-17T14:50:14.256Z,9.83
2019-02-17T14:52:44.245Z,10.31
2019-02-17T14:55:16.472Z,10.19
2019-02-17T14:57:50.248Z,10.34
2019-02-17T15:00:23.418Z,10.05
2019-02-17T15:02:52.467Z,9.81
2019-02-17T15:05:22.431Z,9.97
2019-02-17T15:07:52.471Z,10.05
2019-02-17T15:10:21.525Z,10.35
2019-02-17T15:12:51.277Z,10.71
2019-02-17T15:15:20.350Z,11.27
2019-02-17T15:20:26.110Z,12.25
2019-02-17T15:25:31.027Z,12.26
2019-02-17T15:28:00.375Z,17.52
2019-02-17T15:30:29.406Z,19.21
2019-02-17T15:33:03.954Z,15.76
2019-02-17T15:35:29.405Z,16.16
2019-02-17T15:37:58.526Z,15.65
2019-02-17T15:43:03.338Z,18.28
2019-02-17T15:45:33.029Z,19.50
2019-02-17T15:48:02.110Z,19.86
2019-02-17T15:50:31.147Z,22.01
2019-02-17T15:53:01.721Z,24.60
2019-02-17T15:55:31.771Z,23.91
2019-02-17T16:00:36.662Z,25.21
2019-02-17T16:03:05.701Z,24.79
2019-02-17T16:05:37.354Z,25.52
2019-02-17T16:08:06.917Z,26.37
2019-02-17T16:10:36.906Z,26.27
2019-02-17T16:13:09.075Z,27.35
2019-02-17T16:15:39.086Z,28.87
2019-02-17T16:18:08.666Z,33.69
2019-02-17T16:20:39.759Z,32.74
2019-02-17T16:23:09.771Z,34.17
2019-02-17T16:25:39.251Z,37.58
2019-02-17T16:28:10.225Z,41.50
2019-02-17T16:30:39.286Z,35.75
2019-02-17T16:33:08.351Z,46.93
2019-02-17T16:35:37.504Z,47.83
2019-02-17T16:38:07.210Z,51.88
2019-02-17T16:40:36.259Z,47.86
2019-02-17T16:43:06.243Z,51.54
2019-02-17T16:45:36.269Z,45.53
2019-02-17T16:50:41.354Z,46.40
2019-02-17T16:55:46.207Z,52.40
2019-02-17T17:03:40.269Z,50.03
2019-02-17T17:06:09.543Z,48.24
2019-02-17T17:08:38.552Z,50.44
2019-02-17T17:13:42.851Z,47.99
2019-02-17T17:18:48.578Z,46.52
2019-02-17T17:21:19.543Z,47.42
2019-02-17T17:23:49.112Z,50.81
2019-02-17T17:26:18.181Z,49.43
2019-02-17T17:28:47.224Z,51.45
2019-02-17T17:31:16.275Z,51.31
2019-02-17T17:36:22.774Z,49.26
2019-02-17T17:38:51.860Z,49.12
2019-02-17T17:41:20.892Z,54.25
2019-02-17T17:46:30.307Z,55.74
2019-02-17T17:49:00.339Z,57.83
2019-02-17T17:51:30.336Z,59.52
2019-02-17T17:53:59.540Z,59.69
2019-02-17T17:56:41.905Z,59.01
2019-02-17T17:59:14.322Z,58.96
2019-02-17T18:01:43.354Z,58.78
2019-02-17T18:04:14.366Z,59.08
2019-02-17T18:06:43.425Z,53.74
2019-02-17T18:11:48.203Z,53.08
2019-02-17T18:14:21.408Z,56.94
2019-02-17T18:16:50.462Z,57.84
2019-02-17T18:19:19.487Z,54.58
2019-02-17T18:21:48.996Z,59.78
2019-02-17T18:24:18.071Z,58.54
2019-02-17T18:29:22.975Z,55.85
2019-02-17T18:31:52.043Z,58.33
2019-02-17T18:34:22.713Z,56.17
2019-02-17T18:36:51.767Z,62.17
2019-02-17T18:39:20.898Z,59.97
2019-02-17T18:41:51.339Z,63.10
2019-02-17T18:44:25.000Z,63.35
2019-02-17T18:46:54.044Z,62.97
2019-02-17T18:49:27.049Z,61.10
2019-02-17T18:51:56.110Z,63.37
2019-02-17T18:54:37.672Z,60.55
2019-02-17T18:57:12.512Z,59.57
2019-02-17T18:59:41.553Z,56.88
2019-02-17T19:02:12.511Z,54.25
2019-02-17T19:04:49.316Z,52.39
2019-02-17T19:09:59.330Z,51.27
2019-02-17T19:12:28.359Z,55.89
2019-02-17T19:14:57.421Z,54.43
2019-02-17T19:17:26.468Z,55.67
2019-02-17T19:19:57.036Z,55.25
2019-02-17T19:22:26.110Z,63.50
2019-02-17T19:24:58.628Z,61.64
2019-02-17T19:27:28.020Z,67.76
2019-02-17T19:29:57.116Z,65.03
2019-02-17T19:32:26.188Z,62.15
2019-02-17T19:34:55.305Z,67.82
2019-02-17T19:37:24.340Z,64.39
2019-02-17T19:39:55.036Z,61.48
2019-02-17T19:42:25.030Z,68.70
2019-02-17T19:44:54.116Z,70.06
2019-02-17T19:47:23.548Z,67.17
2019-02-17T19:49:56.688Z,62.67
2019-02-17T19:52:28.619Z,63.82
2019-02-17T19:55:11.110Z,64.21
2019-02-17T19:57:40.137Z,58.30
2019-02-17T20:00:22.482Z,56.97
2019-02-17T20:05:55.519Z,63.64
2019-02-17T20:08:24.592Z,63.61
2019-02-17T20:10:55.646Z,61.15
2019-02-17T20:13:25.168Z,63.98
2019-02-17T20:15:54.362Z,65.21
2019-02-17T20:18:23.395Z,60.24
2019-02-17T20:20:53.168Z,63.58
2019-02-17T20:23:22.262Z,67.21
2019-02-17T20:25:52.641Z,69.20
2019-02-17T20:28:32.412Z,68.43
2019-02-17T20:30:52.158Z,71.57
2019-02-17T20:33:21.209Z,64.47
2019-02-17T20:36:02.629Z,70.58
2019-02-17T20:38:26.574Z,64.15
2019-02-17T20:43:32.301Z,66.74
2019-02-17T20:46:01.376Z,72.01
2019-02-17T20:48:30.441Z,71.02
2019-02-17T20:50:59.489Z,71.95
2019-02-17T20:53:28.548Z,69.44
2019-02-17T20:55:57.627Z,68.27
2019-02-17T20:58:29.045Z,66.49
2019-02-17T21:01:06.857Z,64.33
2019-02-17T21:03:36.806Z,62.51
2019-02-17T21:06:12.898Z,61.41
2019-02-17T21:08:35.799Z,59.52
2019-02-17T21:11:08.149Z,59.94
2019-02-17T21:13:38.178Z,60.20
2019-02-17T21:16:09.229Z,60.22
2019-02-17T21:18:53.086Z,59.65
2019-02-17T21:21:22.107Z,60.67
2019-02-17T21:23:54.694Z,60.40
2019-02-17T21:26:26.198Z,60.44
2019-02-17T21:28:56.911Z,59.86
2019-02-17T21:31:26.878Z,60.76
2019-02-17T21:33:55.965Z,60.92
2019-02-17T21:36:24.998Z,60.64
2019-02-17T21:38:58.815Z,60.50
2019-02-17T21:41:28.364Z,60.52
2019-02-17T21:43:57.903Z,61.08
2019-02-17T21:46:28.048Z,61.15
2019-02-17T21:49:00.555Z,61.58
2019-02-17T21:51:29.603Z,61.36
2019-02-17T21:53:58.695Z,60.94
2019-02-17T21:56:38.548Z,61.40
2019-02-17T21:59:07.802Z,61.68
2019-02-17T22:01:43.692Z,61.17
2019-02-17T22:04:17.740Z,60.30
2019-02-17T22:06:46.847Z,59.59
2019-02-17T22:09:17.629Z,59.18
2019-02-17T22:11:46.779Z,59.08
2019-02-17T22:14:19.277Z,59.92
2019-02-17T22:16:48.910Z,60.12
2019-02-17T22:19:27.007Z,59.96
2019-02-17T22:22:00.002Z,59.37
2019-02-17T22:24:31.736Z,58.84
2019-02-17T22:27:01.803Z,58.55
2019-02-17T22:29:35.108Z,58.52
2019-02-17T22:32:05.357Z,58.37
2019-02-17T22:34:34.392Z,58.54
2019-02-17T22:39:39.255Z,58.98
2019-02-17T22:42:08.748Z,59.36
2019-02-17T22:47:16.601Z,57.83
2019-02-17T22:49:58.645Z,57.95
2019-02-17T22:55:10.187Z,57.93
2019-02-17T22:57:43.783Z,58.03
2019-02-17T23:00:38.431Z,57.98
2019-02-17T23:03:07.488Z,58.84
2019-02-17T23:05:37.372Z,59.24
2019-02-17T23:08:08.044Z,59.36
2019-02-17T23:10:37.133Z,59.66
2019-02-17T23:13:08.172Z,60.46
2019-02-17T23:18:14.895Z,61.03
2019-02-17T23:20:44.774Z,61.00
2019-02-17T23:25:53.018Z,60.45
2019-02-17T23:28:28.648Z,60.07
2019-02-17T23:30:57.675Z,59.91
2019-02-17T23:33:26.717Z,60.62
2019-02-17T23:35:55.752Z,60.83
2019-02-17T23:38:24.822Z,60.56
2019-02-17T23:40:56.208Z,60.47
2019-02-17T23:43:26.209Z,60.54
2019-02-17T23:45:55.253Z,61.54
2019-02-17T23:48:25.191Z,61.65
2019-02-17T23:50:54.258Z,61.32
2019-02-17T23:53:23.713Z,62.03
2019-02-17T23:55:52.776Z,61.80
2019-02-17T23:58:21.804Z,62.08
